sensor_id;sensor_type;location;lat;lon;timestamp;pressure;altitude;pressure_sealevel;temperature;humidity
8585;BME280;7180;52.742;11.420;2024-01-07T00:00:33;77055.75;;;-142.35;62.40
8585;BME280;7180;52.742;11.420;2024-01-07T00:02:59;76987.19;;;-142.35;62.04
8585;BME280;7180;52.742;11.420;2024-01-07T00:05:24;76971.06;;;-142.35;62.13
8585;BME280;7180;52.742;11.420;2024-01-07T00:07:49;76954.94;;;-142.35;61.91
8585;BME280;7180;52.742;11.420;2024-01-07T00:10:16;77011.38;;;-142.35;62.33
8585;BME280;7180;52.742;11.420;2024-01-07T00:12:41;77130.34;;;-142.35;63.00
8585;BME280;7180;52.742;11.420;2024-01-07T00:15:06;77067.84;;;-142.35;62.32
8585;BME280;7180;52.742;11.420;2024-01-07T00:17:32;77045.66;;;-142.35;62.09
8585;BME280;7180;52.742;11.420;2024-01-07T00:19:57;76997.28;;;-142.35;62.16
8585;BME280;7180;52.742;11.420;2024-01-07T00:22:22;76973.09;;;-142.35;61.83
8585;BME280;7180;52.742;11.420;2024-01-07T00:24:48;76956.97;;;-142.35;61.96
8585;BME280;7180;52.742;11.420;2024-01-07T00:27:13;76967.03;;;-142.35;61.93
8585;BME280;7180;52.742;11.420;2024-01-07T00:29:38;76969.06;;;-142.35;61.86
8585;BME280;7180;52.742;11.420;2024-01-07T00:32:03;77019.47;;;-142.35;61.98
8585;BME280;7180;52.742;11.420;2024-01-07T00:34:29;77023.50;;;-142.35;62.07
8585;BME280;7180;52.742;11.420;2024-01-07T00:36:54;77033.56;;;-142.35;62.24
8585;BME280;7180;52.742;11.420;2024-01-07T00:39:20;77079.94;;;-142.35;62.16
8585;BME280;7180;52.742;11.420;2024-01-07T00:41:46;77027.53;;;-142.35;61.75
8585;BME280;7180;52.742;11.420;2024-01-07T00:44:11;76971.06;;;-142.35;61.50
8585;BME280;7180;52.742;11.420;2024-01-07T00:46:36;76938.81;;;-142.35;61.67
8585;BME280;7180;52.742;11.420;2024-01-07T00:49:01;76926.72;;;-142.35;61.44
8585;BME280;7180;52.742;11.420;2024-01-07T00:51:27;76975.09;;;-142.35;61.61
8585;BME280;7180;52.742;11.420;2024-01-07T00:53:52;76908.56;;;-142.35;61.09
8585;BME280;7180;52.742;11.420;2024-01-07T00:56:17;76874.31;;;-142.35;61.10
8585;BME280;7180;52.742;11.420;2024-01-07T00:58:42;76886.41;;;-142.35;61.02
8585;BME280;7180;52.742;11.420;2024-01-07T01:01:08;76874.31;;;-142.35;60.97
8585;BME280;7180;52.742;11.420;2024-01-07T01:03:33;76854.16;;;-142.35;60.67
8585;BME280;7180;52.742;11.420;2024-01-07T01:05:58;76854.16;;;-142.35;60.84
8585;BME280;7180;52.742;11.420;2024-01-07T01:08:23;76904.53;;;-142.35;60.91
8585;BME280;7180;52.742;11.420;2024-01-07T01:10:49;76870.28;;;-142.35;60.80
8585;BME280;7180;52.742;11.420;2024-01-07T01:13:14;76801.72;;;-142.35;60.27
8585;BME280;7180;52.742;11.420;2024-01-07T01:15:39;76803.75;;;-142.35;60.50
8585;BME280;7180;52.742;11.420;2024-01-07T01:18:05;76785.59;;;-142.35;60.10
8585;BME280;7180;52.742;11.420;2024-01-07T01:20:30;76769.47;;;-142.35;60.20
8585;BME280;7180;52.742;11.420;2024-01-07T01:22:56;76757.38;;;-142.35;59.90
8585;BME280;7180;52.742;11.420;2024-01-07T01:25:21;76759.41;;;-142.35;59.73
8585;BME280;7180;52.742;11.420;2024-01-07T01:27:47;76704.97;;;-142.35;59.60
8585;BME280;7180;52.742;11.420;2024-01-07T01:30:12;76745.28;;;-142.35;59.92
8585;BME280;7180;52.742;11.420;2024-01-07T01:32:38;76753.34;;;-142.35;59.52
8585;BME280;7180;52.742;11.420;2024-01-07T01:35:05;76727.13;;;-142.35;59.58
8585;BME280;7180;52.742;11.420;2024-01-07T01:37:30;76725.13;;;-142.35;59.66
8585;BME280;7180;52.742;11.420;2024-01-07T01:39:58;76709.00;;;-142.35;59.57
8585;BME280;7180;52.742;11.420;2024-01-07T01:42:23;76809.78;;;-142.35;60.28
8585;BME280;7180;52.742;11.420;2024-01-07T01:44:48;76769.47;;;-142.35;59.78
8585;BME280;7180;52.742;11.420;2024-01-07T01:47:13;76771.50;;;-142.35;60.03
8585;BME280;7180;52.742;11.420;2024-01-07T01:49:39;76813.81;;;-142.35;60.08
8585;BME280;7180;52.742;11.420;2024-01-07T01:52:05;76809.78;;;-142.35;59.77
8585;BME280;7180;52.742;11.420;2024-01-07T01:54:30;76799.72;;;-142.35;59.76
8585;BME280;7180;52.742;11.420;2024-01-07T01:56:56;76779.56;;;-142.35;59.79
8585;BME280;7180;52.742;11.420;2024-01-07T01:59:22;76781.56;;;-142.35;59.71
8585;BME280;7180;52.742;11.420;2024-01-07T02:01:48;76771.50;;;-142.35;59.42
8585;BME280;7180;52.742;11.420;2024-01-07T02:04:14;76779.56;;;-142.35;59.55
8585;BME280;7180;52.742;11.420;2024-01-07T02:06:40;76765.44;;;-142.35;59.65
8585;BME280;7180;52.742;11.420;2024-01-07T02:09:05;76773.50;;;-142.35;59.55
8585;BME280;7180;52.742;11.420;2024-01-07T02:11:30;76749.31;;;-142.35;59.05
8585;BME280;7180;52.742;11.420;2024-01-07T02:13:56;76773.50;;;-142.35;59.30
8585;BME280;7180;52.742;11.420;2024-01-07T02:16:21;76827.94;;;-142.35;59.32
8585;BME280;7180;52.742;11.420;2024-01-07T02:18:46;76779.56;;;-142.35;59.38
8585;BME280;7180;52.742;11.420;2024-01-07T02:21:14;76733.19;;;-142.35;58.77
8585;BME280;7180;52.742;11.420;2024-01-07T02:23:40;76729.16;;;-142.35;58.88
8585;BME280;7180;52.742;11.420;2024-01-07T02:26:05;76781.56;;;-142.35;59.16
8585;BME280;7180;52.742;11.420;2024-01-07T02:28:32;76817.84;;;-142.35;59.32
8585;BME280;7180;52.742;11.420;2024-01-07T02:30:57;76797.69;;;-142.35;59.21
8585;BME280;7180;52.742;11.420;2024-01-07T02:33:22;76817.84;;;-142.35;59.23
8585;BME280;7180;52.742;11.420;2024-01-07T02:35:48;76805.75;;;-142.35;58.92
8585;BME280;7180;52.742;11.420;2024-01-07T02:38:13;76838.00;;;-142.35;59.36
8585;BME280;7180;52.742;11.420;2024-01-07T02:40:38;76821.88;;;-142.35;58.91
8585;BME280;7180;52.742;11.420;2024-01-07T02:43:04;76803.75;;;-142.35;58.81
8585;BME280;7180;52.742;11.420;2024-01-07T02:45:29;76842.03;;;-142.35;58.93
8585;BME280;7180;52.742;11.420;2024-01-07T02:47:54;76823.91;;;-142.35;58.86
8585;BME280;7180;52.742;11.420;2024-01-07T02:50:19;76825.91;;;-142.35;58.86
8585;BME280;7180;52.742;11.420;2024-01-07T02:52:45;76819.88;;;-142.35;58.76
8585;BME280;7180;52.742;11.420;2024-01-07T02:55:10;76850.09;;;-142.35;59.00
8585;BME280;7180;52.742;11.420;2024-01-07T02:57:35;76896.47;;;-142.35;59.45
8585;BME280;7180;52.742;11.420;2024-01-07T03:00:01;76928.72;;;-142.35;59.25
8585;BME280;7180;52.742;11.420;2024-01-07T03:02:27;76969.06;;;-142.35;59.54
8585;BME280;7180;52.742;11.420;2024-01-07T03:04:53;76995.25;;;-142.35;59.71
8585;BME280;7180;52.742;11.420;2024-01-07T03:07:18;76999.28;;;-142.35;59.54
8585;BME280;7180;52.742;11.420;2024-01-07T03:09:43;77021.47;;;-142.35;59.66
8585;BME280;7180;52.742;11.420;2024-01-07T03:12:08;77047.69;;;-142.35;59.80
8585;BME280;7180;52.742;11.420;2024-01-07T03:14:34;77043.66;;;-142.35;59.73
8585;BME280;7180;52.742;11.420;2024-01-07T03:16:59;77039.63;;;-142.35;59.63
8585;BME280;7180;52.742;11.420;2024-01-07T03:19:24;77100.09;;;-142.35;59.83
8585;BME280;7180;52.742;11.420;2024-01-07T03:21:50;77104.13;;;-142.35;60.05
8585;BME280;7180;52.742;11.420;2024-01-07T03:24:15;77148.47;;;-142.35;60.10
8585;BME280;7180;52.742;11.420;2024-01-07T03:26:40;77184.78;;;-142.35;60.35
8585;BME280;7180;52.742;11.420;2024-01-07T03:29:05;77225.09;;;-142.35;60.26
8585;BME280;7180;52.742;11.420;2024-01-07T03:31:31;77239.22;;;-142.35;60.54
8585;BME280;7180;52.742;11.420;2024-01-07T03:33:56;77257.34;;;-142.35;60.35
8585;BME280;7180;52.742;11.420;2024-01-07T03:36:22;77265.41;;;-142.35;60.42
8585;BME280;7180;52.742;11.420;2024-01-07T03:38:47;77289.63;;;-142.35;60.50
8585;BME280;7180;52.742;11.420;2024-01-07T03:41:17;77311.78;;;-142.35;60.35
8585;BME280;7180;52.742;11.420;2024-01-07T03:43:46;77293.66;;;-142.35;60.27
8585;BME280;7180;52.742;11.420;2024-01-07T03:46:11;77325.91;;;-142.35;60.79
8585;BME280;7180;52.742;11.420;2024-01-07T03:48:37;77338.00;;;-142.35;60.64
8585;BME280;7180;52.742;11.420;2024-01-07T03:51:02;77321.88;;;-142.35;60.25
8585;BME280;7180;52.742;11.420;2024-01-07T03:53:27;77362.19;;;-142.35;60.78
8585;BME280;7180;52.742;11.420;2024-01-07T03:55:53;77382.38;;;-142.35;60.58
8585;BME280;7180;52.742;11.420;2024-01-07T03:58:18;77406.56;;;-142.35;60.72
8585;BME280;7180;52.742;11.420;2024-01-07T04:00:43;77422.69;;;-142.35;60.70
8585;BME280;7180;52.742;11.420;2024-01-07T04:03:08;77465.03;;;-142.35;61.19
8585;BME280;7180;52.742;11.420;2024-01-07T04:05:34;77479.16;;;-142.35;61.28
8585;BME280;7180;52.742;11.420;2024-01-07T04:08:02;77521.47;;;-142.35;61.02
8585;BME280;7180;52.742;11.420;2024-01-07T04:10:28;77523.50;;;-142.35;61.09
8585;BME280;7180;52.742;11.420;2024-01-07T04:12:53;77517.44;;;-142.35;61.30
8585;BME280;7180;52.742;11.420;2024-01-07T04:15:18;77503.34;;;-142.35;60.99
8585;BME280;7180;52.742;11.420;2024-01-07T04:17:43;77507.38;;;-142.35;61.08
8585;BME280;7180;52.742;11.420;2024-01-07T04:20:12;77537.63;;;-142.35;60.95
8585;BME280;7180;52.742;11.420;2024-01-07T04:22:38;77527.53;;;-142.35;61.16
8585;BME280;7180;52.742;11.420;2024-01-07T04:25:03;77567.84;;;-142.35;61.08
8585;BME280;7180;52.742;11.420;2024-01-07T04:27:30;77584.00;;;-142.35;61.39
8585;BME280;7180;52.742;11.420;2024-01-07T04:29:55;77594.06;;;-142.35;61.46
8585;BME280;7180;52.742;11.420;2024-01-07T04:32:20;77604.16;;;-142.35;61.54
8585;BME280;7180;52.742;11.420;2024-01-07T04:34:45;77616.25;;;-142.35;61.42
8585;BME280;7180;52.742;11.420;2024-01-07T04:37:11;77624.31;;;-142.35;61.49
8585;BME280;7180;52.742;11.420;2024-01-07T04:39:36;77636.41;;;-142.35;61.68
8585;BME280;7180;52.742;11.420;2024-01-07T04:42:02;77606.16;;;-142.35;61.32
8585;BME280;7180;52.742;11.420;2024-01-07T04:44:27;77549.72;;;-142.35;61.01
8585;BME280;7180;52.742;11.420;2024-01-07T04:46:52;77487.22;;;-142.35;60.71
8585;BME280;7180;52.742;11.420;2024-01-07T04:49:18;77467.03;;;-142.35;60.60
8585;BME280;7180;52.742;11.420;2024-01-07T04:51:43;77471.06;;;-142.35;60.62
8585;BME280;7180;52.742;11.420;2024-01-07T04:54:08;77442.84;;;-142.35;60.56
8585;BME280;7180;52.742;11.420;2024-01-07T04:56:33;77400.50;;;-142.35;60.17
8585;BME280;7180;52.742;11.420;2024-01-07T04:58:59;77398.50;;;-142.35;60.14
8585;BME280;7180;52.742;11.420;2024-01-07T05:01:24;77384.38;;;-142.35;60.17
8585;BME280;7180;52.742;11.420;2024-01-07T05:03:49;77392.44;;;-142.35;60.15
8585;BME280;7180;52.742;11.420;2024-01-07T05:06:15;77408.56;;;-142.35;60.13
8585;BME280;7180;52.742;11.420;2024-01-07T05:08:41;77406.56;;;-142.35;60.13
8585;BME280;7180;52.742;11.420;2024-01-07T05:11:06;77394.47;;;-142.35;60.42
8585;BME280;7180;52.742;11.420;2024-01-07T05:13:31;77382.38;;;-142.35;60.37
8585;BME280;7180;52.742;11.420;2024-01-07T05:15:57;77402.53;;;-142.35;60.52
8585;BME280;7180;52.742;11.420;2024-01-07T05:18:23;77404.53;;;-142.35;60.10
8585;BME280;7180;52.742;11.420;2024-01-07T05:20:49;77368.25;;;-142.35;60.12
8585;BME280;7180;52.742;11.420;2024-01-07T05:23:14;77344.06;;;-142.35;59.80
8585;BME280;7180;52.742;11.420;2024-01-07T05:25:39;77297.69;;;-142.35;59.79
8585;BME280;7180;52.742;11.420;2024-01-07T05:28:05;77273.47;;;-142.35;59.69
8585;BME280;7180;52.742;11.420;2024-01-07T05:30:31;77241.22;;;-142.35;59.28
8585;BME280;7180;52.742;11.420;2024-01-07T05:32:56;77237.19;;;-142.35;59.66
8585;BME280;7180;52.742;11.420;2024-01-07T05:35:22;77257.34;;;-142.35;59.46
8585;BME280;7180;52.742;11.420;2024-01-07T05:37:47;77229.13;;;-142.35;59.35
8585;BME280;7180;52.742;11.420;2024-01-07T05:40:12;77225.09;;;-142.35;59.31
8585;BME280;7180;52.742;11.420;2024-01-07T05:42:37;77202.91;;;-142.35;59.16
8585;BME280;7180;52.742;11.420;2024-01-07T05:45:03;77184.78;;;-142.35;59.18
8585;BME280;7180;52.742;11.420;2024-01-07T05:47:28;77180.75;;;-142.35;59.25
8585;BME280;7180;52.742;11.420;2024-01-07T05:49:55;77208.97;;;-142.35;59.33
8585;BME280;7180;52.742;11.420;2024-01-07T05:52:20;77176.72;;;-142.35;59.26
8585;BME280;7180;52.742;11.420;2024-01-07T05:54:45;77180.75;;;-142.35;59.06
8585;BME280;7180;52.742;11.420;2024-01-07T05:57:12;77178.72;;;-142.35;59.11
8585;BME280;7180;52.742;11.420;2024-01-07T05:59:37;77204.94;;;-142.35;59.27
8585;BME280;7180;52.742;11.420;2024-01-07T06:02:03;77204.94;;;-142.35;59.25
8585;BME280;7180;52.742;11.420;2024-01-07T06:04:28;77235.19;;;-142.35;59.70
8585;BME280;7180;52.742;11.420;2024-01-07T06:06:53;77275.50;;;-142.35;59.77
8585;BME280;7180;52.742;11.420;2024-01-07T06:09:18;77277.53;;;-142.35;59.76
8585;BME280;7180;52.742;11.420;2024-01-07T06:11:44;77277.53;;;-142.35;59.79
8585;BME280;7180;52.742;11.420;2024-01-07T06:14:09;77338.00;;;-142.35;60.03
8585;BME280;7180;52.742;11.420;2024-01-07T06:16:34;77374.28;;;-142.35;60.35
8585;BME280;7180;52.742;11.420;2024-01-07T06:18:59;77402.53;;;-142.35;60.25
8585;BME280;7180;52.742;11.420;2024-01-07T06:21:25;77430.75;;;-142.35;60.53
8585;BME280;7180;52.742;11.420;2024-01-07T06:23:50;77450.91;;;-142.35;60.39
8585;BME280;7180;52.742;11.420;2024-01-07T06:26:15;77426.72;;;-142.35;60.28
8585;BME280;7180;52.742;11.420;2024-01-07T06:28:41;77444.88;;;-142.35;60.28
8585;BME280;7180;52.742;11.420;2024-01-07T06:31:06;77430.75;;;-142.35;60.15
8585;BME280;7180;52.742;11.420;2024-01-07T06:33:32;77410.59;;;-142.35;60.22
8585;BME280;7180;52.742;11.420;2024-01-07T06:35:57;77483.19;;;-142.35;60.45
8585;BME280;7180;52.742;11.420;2024-01-07T06:38:22;77559.78;;;-142.35;60.97
8585;BME280;7180;52.742;11.420;2024-01-07T06:40:48;77606.16;;;-142.35;61.14
8585;BME280;7180;52.742;11.420;2024-01-07T06:43:14;77561.81;;;-142.35;60.76
8585;BME280;7180;52.742;11.420;2024-01-07T06:45:39;77541.66;;;-142.35;60.74
8585;BME280;7180;52.742;11.420;2024-01-07T06:48:05;77535.59;;;-142.35;60.49
8585;BME280;7180;52.742;11.420;2024-01-07T06:50:30;77549.72;;;-142.35;60.62
8585;BME280;7180;52.742;11.420;2024-01-07T06:52:55;77581.97;;;-142.35;60.90
8585;BME280;7180;52.742;11.420;2024-01-07T06:55:21;77606.16;;;-142.35;60.86
8585;BME280;7180;52.742;11.420;2024-01-07T06:57:47;77656.59;;;-142.35;61.04
8585;BME280;7180;52.742;11.420;2024-01-07T07:00:12;77664.66;;;-142.35;61.07
8585;BME280;7180;52.742;11.420;2024-01-07T07:02:38;77666.66;;;-142.35;61.08
8585;BME280;7180;52.742;11.420;2024-01-07T07:05:04;77624.31;;;-142.35;60.99
8585;BME280;7180;52.742;11.420;2024-01-07T07:07:29;77644.47;;;-142.35;60.71
8585;BME280;7180;52.742;11.420;2024-01-07T07:09:54;77700.94;;;-142.35;61.27
8585;BME280;7180;52.742;11.420;2024-01-07T07:12:20;77672.72;;;-142.35;61.15
8585;BME280;7180;52.742;11.420;2024-01-07T07:14:45;77650.53;;;-142.35;60.99
8585;BME280;7180;52.742;11.420;2024-01-07T07:17:10;77686.81;;;-142.35;61.02
8585;BME280;7180;52.742;11.420;2024-01-07T07:19:36;77723.13;;;-142.35;61.40
8585;BME280;7180;52.742;11.420;2024-01-07T07:22:01;77757.41;;;-142.35;61.27
8585;BME280;7180;52.742;11.420;2024-01-07T07:24:26;77781.59;;;-142.35;61.76
8585;BME280;7180;52.742;11.420;2024-01-07T07:26:52;77805.81;;;-142.35;61.93
8585;BME280;7180;52.742;11.420;2024-01-07T07:29:17;77801.75;;;-142.35;61.46
8585;BME280;7180;52.742;11.420;2024-01-07T07:31:42;77749.34;;;-142.35;61.34
8585;BME280;7180;52.742;11.420;2024-01-07T07:34:09;77739.25;;;-142.35;61.42
8585;BME280;7180;52.742;11.420;2024-01-07T07:36:34;77733.22;;;-142.35;61.17
8585;BME280;7180;52.742;11.420;2024-01-07T07:38:59;77777.56;;;-142.35;61.39
8585;BME280;7180;52.742;11.420;2024-01-07T07:41:25;77811.84;;;-142.35;61.54
8585;BME280;7180;52.742;11.420;2024-01-07T07:43:50;77789.66;;;-142.35;61.51
8585;BME280;7180;52.742;11.420;2024-01-07T07:46:15;77862.25;;;-142.35;62.01
8585;BME280;7180;52.742;11.420;2024-01-07T07:48:41;77868.31;;;-142.35;61.83
8585;BME280;7180;52.742;11.420;2024-01-07T07:51:07;77880.41;;;-142.35;61.76
8585;BME280;7180;52.742;11.420;2024-01-07T07:53:32;77872.34;;;-142.35;61.95
8585;BME280;7180;52.742;11.420;2024-01-07T07:55:57;77910.66;;;-142.35;61.93
8585;BME280;7180;52.742;11.420;2024-01-07T07:58:22;77940.91;;;-142.35;62.20
8585;BME280;7180;52.742;11.420;2024-01-07T08:00:48;77924.78;;;-142.35;62.08
8585;BME280;7180;52.742;11.420;2024-01-07T08:03:13;77918.72;;;-142.35;62.16
8585;BME280;7180;52.742;11.420;2024-01-07T08:05:38;77932.84;;;-142.35;62.17
8585;BME280;7180;52.742;11.420;2024-01-07T08:08:05;77948.97;;;-142.35;62.31
8585;BME280;7180;52.742;11.420;2024-01-07T08:10:31;77936.88;;;-142.35;62.11
8585;BME280;7180;52.742;11.420;2024-01-07T08:12:57;77932.84;;;-142.35;62.21
8585;BME280;7180;52.742;11.420;2024-01-07T08:15:22;77981.25;;;-142.35;62.48
8585;BME280;7180;52.742;11.420;2024-01-07T08:17:47;77987.28;;;-142.35;62.45
8585;BME280;7180;52.742;11.420;2024-01-07T08:20:13;77969.13;;;-142.35;62.28
8585;BME280;7180;52.742;11.420;2024-01-07T08:22:38;77938.88;;;-142.35;62.26
8585;BME280;7180;52.742;11.420;2024-01-07T08:25:04;77946.97;;;-142.35;62.01
8585;BME280;7180;52.742;11.420;2024-01-07T08:27:29;77991.31;;;-142.35;62.45
8585;BME280;7180;52.742;11.420;2024-01-07T08:29:57;77985.28;;;-142.35;62.57
8585;BME280;7180;52.742;11.420;2024-01-07T08:32:22;77983.25;;;-142.35;62.31
8585;BME280;7180;52.742;11.420;2024-01-07T08:34:49;77946.97;;;-142.35;62.26
8585;BME280;7180;52.742;11.420;2024-01-07T08:37:14;77932.84;;;-142.35;62.12
8585;BME280;7180;52.742;11.420;2024-01-07T08:39:39;77971.16;;;-142.35;62.47
8585;BME280;7180;52.742;11.420;2024-01-07T08:42:04;77995.34;;;-142.35;62.33
8585;BME280;7180;52.742;11.420;2024-01-07T08:44:30;78015.53;;;-142.35;62.57
8585;BME280;7180;52.742;11.420;2024-01-07T08:46:55;77967.13;;;-142.35;62.42
8585;BME280;7180;52.742;11.420;2024-01-07T08:49:21;77944.94;;;-142.35;62.09
8585;BME280;7180;52.742;11.420;2024-01-07T08:51:46;77989.31;;;-142.35;62.47
8585;BME280;7180;52.742;11.420;2024-01-07T08:54:11;78011.50;;;-142.35;62.58
8585;BME280;7180;52.742;11.420;2024-01-07T08:56:37;78039.72;;;-142.35;62.71
8585;BME280;7180;52.742;11.420;2024-01-07T08:59:04;78025.59;;;-142.35;62.52
8585;BME280;7180;52.742;11.420;2024-01-07T09:01:29;78007.47;;;-142.35;62.48
8585;BME280;7180;52.742;11.420;2024-01-07T09:03:55;77951.00;;;-142.35;62.38
8585;BME280;7180;52.742;11.420;2024-01-07T09:06:20;77942.94;;;-142.35;62.29
8585;BME280;7180;52.742;11.420;2024-01-07T09:08:45;77938.88;;;-142.35;62.06
8585;BME280;7180;52.742;11.420;2024-01-07T09:11:11;77934.84;;;-142.35;62.11
8585;BME280;7180;52.742;11.420;2024-01-07T09:13:37;77910.66;;;-142.35;61.91
8585;BME280;7180;52.742;11.420;2024-01-07T09:16:03;77910.66;;;-142.35;61.94
8585;BME280;7180;52.742;11.420;2024-01-07T09:18:28;77904.59;;;-142.35;61.99
8585;BME280;7180;52.742;11.420;2024-01-07T09:20:54;77910.66;;;-142.35;62.25
8585;BME280;7180;52.742;11.420;2024-01-07T09:23:19;77878.41;;;-142.35;61.71
8585;BME280;7180;52.742;11.420;2024-01-07T09:25:44;77951.00;;;-142.35;62.27
8585;BME280;7180;52.742;11.420;2024-01-07T09:28:11;77995.34;;;-142.35;62.75
8585;BME280;7180;52.742;11.420;2024-01-07T09:30:38;78059.88;;;-142.35;62.83
8585;BME280;7180;52.742;11.420;2024-01-07T09:33:03;78072.00;;;-142.35;63.03
8585;BME280;7180;52.742;11.420;2024-01-07T09:35:28;78025.59;;;-142.35;62.72
8585;BME280;7180;52.742;11.420;2024-01-07T09:37:53;78009.47;;;-142.35;62.73
8585;BME280;7180;52.742;11.420;2024-01-07T09:40:19;78051.81;;;-142.35;62.75
8585;BME280;7180;52.742;11.420;2024-01-07T09:42:45;78120.38;;;-142.35;63.18
8585;BME280;7180;52.742;11.420;2024-01-07T09:45:13;78114.34;;;-142.35;63.00
8585;BME280;7180;52.742;11.420;2024-01-07T09:47:39;78072.00;;;-142.35;63.07
8585;BME280;7180;52.742;11.420;2024-01-07T09:50:06;78047.78;;;-142.35;62.71
8585;BME280;7180;52.742;11.420;2024-01-07T09:52:32;78041.75;;;-142.35;62.97
8585;BME280;7180;52.742;11.420;2024-01-07T09:55:00;78025.59;;;-142.35;62.79
8585;BME280;7180;52.742;11.420;2024-01-07T09:57:28;78001.41;;;-142.35;62.83
8585;BME280;7180;52.742;11.420;2024-01-07T09:59:54;77995.34;;;-142.35;62.74
8585;BME280;7180;52.742;11.420;2024-01-07T10:02:20;77975.19;;;-142.35;62.58
8585;BME280;7180;52.742;11.420;2024-01-07T10:04:47;78003.44;;;-142.35;62.90
8585;BME280;7180;52.742;11.420;2024-01-07T10:07:13;78112.31;;;-142.35;63.44
8585;BME280;7180;52.742;11.420;2024-01-07T10:09:40;78148.63;;;-142.35;63.40
8585;BME280;7180;52.742;11.420;2024-01-07T10:12:06;78203.06;;;-142.35;64.10
8585;BME280;7180;52.742;11.420;2024-01-07T10:14:31;78203.06;;;-142.35;63.98
8585;BME280;7180;52.742;11.420;2024-01-07T10:16:57;78164.75;;;-142.35;63.81
8585;BME280;7180;52.742;11.420;2024-01-07T10:19:24;78193.00;;;-142.35;63.77
8585;BME280;7180;52.742;11.420;2024-01-07T10:22:03;78150.63;;;-142.35;63.64
8585;BME280;7180;52.742;11.420;2024-01-07T10:24:41;78088.13;;;-142.35;63.32
8585;BME280;7180;52.742;11.420;2024-01-07T10:27:08;78108.28;;;-142.35;63.36
8585;BME280;7180;52.742;11.420;2024-01-07T10:29:33;78088.13;;;-142.35;63.15
8585;BME280;7180;52.742;11.420;2024-01-07T10:32:00;78112.31;;;-142.35;63.25
8585;BME280;7180;52.742;11.420;2024-01-07T10:34:35;78100.22;;;-142.35;63.23
8585;BME280;7180;52.742;11.420;2024-01-07T10:37:02;78092.16;;;-142.35;63.42
8585;BME280;7180;52.742;11.420;2024-01-07T10:39:28;78082.06;;;-142.35;63.28
8585;BME280;7180;52.742;11.420;2024-01-07T10:41:57;78176.84;;;-142.35;63.97
8585;BME280;7180;52.742;11.420;2024-01-07T10:44:27;78245.44;;;-142.35;64.23
8585;BME280;7180;52.742;11.420;2024-01-07T10:46:54;78267.59;;;-142.35;64.21
8585;BME280;7180;52.742;11.420;2024-01-07T10:49:21;78255.50;;;-142.35;64.38
8585;BME280;7180;52.742;11.420;2024-01-07T10:51:57;78275.69;;;-142.35;64.29
8585;BME280;7180;52.742;11.420;2024-01-07T10:54:28;78247.44;;;-142.35;64.23
8585;BME280;7180;52.742;11.420;2024-01-07T10:56:58;78184.94;;;-142.35;63.59
8585;BME280;7180;52.742;11.420;2024-01-07T10:59:24;78090.13;;;-142.35;63.08
8585;BME280;7180;52.742;11.420;2024-01-07T11:01:49;78124.41;;;-142.35;63.36
8585;BME280;7180;52.742;11.420;2024-01-07T11:04:23;78138.53;;;-142.35;63.61
8585;BME280;7180;52.742;11.420;2024-01-07T11:06:55;78174.84;;;-142.35;63.91
8585;BME280;7180;52.742;11.420;2024-01-07T11:09:36;78186.94;;;-142.35;63.86
8585;BME280;7180;52.742;11.420;2024-01-07T11:12:03;78102.25;;;-142.35;63.39
8585;BME280;7180;52.742;11.420;2024-01-07T11:14:43;78049.81;;;-142.35;63.31
8585;BME280;7180;52.742;11.420;2024-01-07T11:20:04;78136.53;;;-142.35;63.50
8585;BME280;7180;52.742;11.420;2024-01-07T11:22:30;78108.28;;;-142.35;63.33
8585;BME280;7180;52.742;11.420;2024-01-07T11:24:57;78128.47;;;-142.35;63.63
8585;BME280;7180;52.742;11.420;2024-01-07T11:27:23;78100.22;;;-142.35;63.40
8585;BME280;7180;52.742;11.420;2024-01-07T11:30:02;78037.72;;;-142.35;62.88
8585;BME280;7180;52.742;11.420;2024-01-07T11:32:30;77999.38;;;-142.35;62.71
8585;BME280;7180;52.742;11.420;2024-01-07T11:34:55;77955.03;;;-142.35;62.38
8585;BME280;7180;52.742;11.420;2024-01-07T11:37:23;77922.75;;;-142.35;62.51
8585;BME280;7180;52.742;11.420;2024-01-07T11:39:51;77906.63;;;-142.35;62.51
8585;BME280;7180;52.742;11.420;2024-01-07T11:42:17;77953.00;;;-142.35;62.90
8585;BME280;7180;52.742;11.420;2024-01-07T11:44:47;77942.94;;;-142.35;62.78
8585;BME280;7180;52.742;11.420;2024-01-07T11:47:14;77900.56;;;-142.35;62.43
8585;BME280;7180;52.742;11.420;2024-01-07T11:49:39;77894.53;;;-142.35;62.56
8585;BME280;7180;52.742;11.420;2024-01-07T11:52:05;77898.56;;;-142.35;62.71
8585;BME280;7180;52.742;11.420;2024-01-07T11:54:31;77916.72;;;-142.35;62.58
8585;BME280;7180;52.742;11.420;2024-01-07T11:56:56;77906.63;;;-142.35;62.52
8585;BME280;7180;52.742;11.420;2024-01-07T11:59:22;77896.53;;;-142.35;62.40
8585;BME280;7180;52.742;11.420;2024-01-07T12:01:48;77938.88;;;-142.35;62.81
8585;BME280;7180;52.742;11.420;2024-01-07T12:04:13;77890.50;;;-142.35;62.36
8585;BME280;7180;52.742;11.420;2024-01-07T12:06:40;77908.66;;;-142.35;62.53
8585;BME280;7180;52.742;11.420;2024-01-07T12:09:05;77904.59;;;-142.35;62.53
8585;BME280;7180;52.742;11.420;2024-01-07T12:11:31;77894.53;;;-142.35;62.36
8585;BME280;7180;52.742;11.420;2024-01-07T12:13:57;77918.72;;;-142.35;62.48
8585;BME280;7180;52.742;11.420;2024-01-07T12:16:22;77872.34;;;-142.35;62.29
8585;BME280;7180;52.742;11.420;2024-01-07T12:18:47;77844.13;;;-142.35;62.26
8585;BME280;7180;52.742;11.420;2024-01-07T12:21:18;77846.13;;;-142.35;62.28
8585;BME280;7180;52.742;11.420;2024-01-07T12:23:48;77801.75;;;-142.35;62.01
8585;BME280;7180;52.742;11.420;2024-01-07T12:26:13;77858.22;;;-142.35;62.41
8585;BME280;7180;52.742;11.420;2024-01-07T12:28:39;77918.72;;;-142.35;62.68
8585;BME280;7180;52.742;11.420;2024-01-07T12:31:05;77912.69;;;-142.35;62.47
8585;BME280;7180;52.742;11.420;2024-01-07T12:33:30;77878.41;;;-142.35;62.22
8585;BME280;7180;52.742;11.420;2024-01-07T12:35:57;77866.28;;;-142.35;62.24
8585;BME280;7180;52.742;11.420;2024-01-07T12:38:25;77846.13;;;-142.35;62.02
8585;BME280;7180;52.742;11.420;2024-01-07T12:40:52;77830.00;;;-142.35;61.91
8585;BME280;7180;52.742;11.420;2024-01-07T12:43:17;77803.78;;;-142.35;61.89
8585;BME280;7180;52.742;11.420;2024-01-07T12:45:43;77805.81;;;-142.35;62.00